createdAt,value
2023-10-30T00:02:24.490Z,83.26
2023-10-30T00:05:27.041Z,83.37
2023-10-30T00:08:29.836Z,83.72
2023-10-30T00:11:32.092Z,83.61
2023-10-30T00:14:34.901Z,83.53
2023-10-30T00:17:37.221Z,83.21
2023-10-30T00:20:39.536Z,82.94
2023-10-30T00:23:49.118Z,82.78
2023-10-30T00:26:51.433Z,82.39
2023-10-30T00:29:53.795Z,82.25
2023-10-30T00:32:56.285Z,82.06
2023-10-30T00:35:58.605Z,82.07
2023-10-30T00:39:00.908Z,82.02
2023-10-30T00:42:03.166Z,82.13
2023-10-30T00:45:07.049Z,82.31
2023-10-30T00:48:09.465Z,82.19
2023-10-30T00:51:11.864Z,82.25
2023-10-30T00:54:14.167Z,82.22
2023-10-30T00:57:16.462Z,82.00
2023-10-30T01:00:19.624Z,82.15
2023-10-30T01:03:24.920Z,82.25
2023-10-30T01:06:27.464Z,82.11
2023-10-30T01:09:29.826Z,82.37
2023-10-30T01:12:32.190Z,82.24
2023-10-30T01:15:35.320Z,82.04
2023-10-30T01:18:38.922Z,82.07
2023-10-30T01:21:41.321Z,82.26
2023-10-30T01:24:43.669Z,82.13
2023-10-30T01:27:46.307Z,82.38
2023-10-30T01:30:49.179Z,82.25
2023-10-30T01:33:51.565Z,82.18
2023-10-30T01:36:54.043Z,82.08
2023-10-30T01:39:56.341Z,82.70
2023-10-30T01:42:58.576Z,82.50
2023-10-30T01:46:01.531Z,82.07
2023-10-30T01:49:03.937Z,82.13
2023-10-30T01:52:06.588Z,81.80
2023-10-30T01:55:09.851Z,81.68
2023-10-30T01:58:12.497Z,81.52
2023-10-30T02:01:15.214Z,81.43
2023-10-30T02:04:18.072Z,81.55
2023-10-30T02:07:21.376Z,81.57
2023-10-30T02:10:23.939Z,81.42
2023-10-30T02:13:26.237Z,81.32
2023-10-30T02:16:28.604Z,81.51
2023-10-30T02:19:31.680Z,81.59
2023-10-30T02:22:34.007Z,81.57
2023-10-30T02:25:36.260Z,81.59
2023-10-30T02:28:38.574Z,81.44
2023-10-30T02:31:41.073Z,81.63
2023-10-30T02:34:43.453Z,81.48
2023-10-30T02:37:46.886Z,81.32
2023-10-30T02:40:49.320Z,81.39
2023-10-30T02:43:51.530Z,81.32
2023-10-30T02:46:53.824Z,81.24
2023-10-30T02:49:56.065Z,81.43
2023-10-30T02:52:58.425Z,81.65
2023-10-30T02:56:00.821Z,81.69
2023-10-30T02:59:03.124Z,81.53
2023-10-30T03:02:05.365Z,81.79
2023-10-30T03:05:09.134Z,81.76
2023-10-30T03:08:11.404Z,81.92
2023-10-30T03:11:13.772Z,82.05
2023-10-30T03:14:16.134Z,81.99
2023-10-30T03:17:18.397Z,82.52
2023-10-30T03:20:26.969Z,82.65
2023-10-30T03:23:29.371Z,82.52
2023-10-30T03:26:31.812Z,82.68
2023-10-30T03:29:37.815Z,82.67
2023-10-30T03:32:41.138Z,82.59
2023-10-30T03:35:43.594Z,83.03
2023-10-30T03:38:45.999Z,82.72
2023-10-30T03:41:48.487Z,83.24
2023-10-30T03:44:50.763Z,82.98
2023-10-30T03:47:53.038Z,82.86
2023-10-30T03:50:55.398Z,83.02
2023-10-30T03:53:57.681Z,83.05
2023-10-30T03:56:59.993Z,82.66
2023-10-30T04:00:02.498Z,82.72
2023-10-30T04:03:13.807Z,82.57
2023-10-30T04:06:16.894Z,82.64
2023-10-30T04:09:19.217Z,82.68
2023-10-30T04:12:22.115Z,82.54
2023-10-30T04:15:24.691Z,82.03
2023-10-30T04:18:26.972Z,81.95
2023-10-30T04:21:30.355Z,81.76
2023-10-30T04:24:33.566Z,82.16
2023-10-30T04:27:36.033Z,82.07
2023-10-30T04:30:38.372Z,82.28
2023-10-30T04:33:40.869Z,82.31
2023-10-30T04:36:43.420Z,82.37
2023-10-30T04:39:46.447Z,82.54
2023-10-30T04:42:48.812Z,82.69
2023-10-30T04:45:51.097Z,83.10
2023-10-30T04:48:53.458Z,83.66
2023-10-30T04:51:55.692Z,83.85
2023-10-30T04:54:58.046Z,83.89
2023-10-30T04:58:00.296Z,83.88
2023-10-30T05:01:14.233Z,83.94
2023-10-30T05:04:18.585Z,84.27
2023-10-30T05:07:21.149Z,84.20
2023-10-30T05:10:23.439Z,84.24
2023-10-30T05:13:25.697Z,84.72
2023-10-30T05:16:27.925Z,84.87
2023-10-30T05:19:30.525Z,84.73
2023-10-30T05:22:35.689Z,85.16
2023-10-30T05:25:42.748Z,85.42
2023-10-30T05:28:45.565Z,86.05
2023-10-30T05:31:47.937Z,86.63
2023-10-30T05:34:50.737Z,86.42
2023-10-30T05:37:53.062Z,85.98
2023-10-30T05:40:55.387Z,86.16
2023-10-30T05:43:57.741Z,86.15
2023-10-30T05:47:00.040Z,86.05
2023-10-30T05:50:02.299Z,85.79
2023-10-30T05:53:04.648Z,86.11
2023-10-30T05:56:07.045Z,86.19
2023-10-30T05:59:09.353Z,85.82
2023-10-30T06:02:11.624Z,86.15
2023-10-30T06:05:16.891Z,85.45
2023-10-30T06:08:23.451Z,85.15
2023-10-30T06:11:25.671Z,85.21
2023-10-30T06:14:28.265Z,84.51
2023-10-30T06:17:30.547Z,84.31
2023-10-30T06:20:33.213Z,83.71
2023-10-30T06:23:35.879Z,83.51
2023-10-30T06:26:43.992Z,82.49
2023-10-30T06:29:46.250Z,82.21
2023-10-30T06:32:48.655Z,82.58
2023-10-30T06:35:57.262Z,82.84
2023-10-30T06:39:01.984Z,83.26
2023-10-30T06:42:04.562Z,83.94
2023-10-30T06:45:07.291Z,83.19
2023-10-30T06:48:09.495Z,83.60
2023-10-30T06:51:11.785Z,82.90
2023-10-30T06:54:14.475Z,82.59
2023-10-30T06:57:16.829Z,80.63
2023-10-30T07:00:20.480Z,80.28
2023-10-30T07:03:23.022Z,79.24
2023-10-30T07:06:25.800Z,77.88
2023-10-30T07:09:28.244Z,75.62
2023-10-30T07:12:30.843Z,75.68
2023-10-30T07:15:33.193Z,76.64
2023-10-30T07:18:35.509Z,76.85
2023-10-30T07:21:41.507Z,77.44
2023-10-30T07:24:45.002Z,77.87
2023-10-30T07:27:47.476Z,77.75
2023-10-30T07:30:50.069Z,77.84
2023-10-30T07:33:53.412Z,77.35
2023-10-30T07:36:55.805Z,76.89
2023-10-30T07:39:58.155Z,77.27
2023-10-30T07:43:00.507Z,76.47
2023-10-30T07:46:03.000Z,76.67
2023-10-30T07:49:08.750Z,76.65
2023-10-30T07:52:11.142Z,77.09
2023-10-30T07:55:14.243Z,75.98
2023-10-30T07:58:16.821Z,75.86
2023-10-30T08:01:22.021Z,75.78
2023-10-30T08:04:24.480Z,75.45
2023-10-30T08:07:26.784Z,76.12
2023-10-30T08:10:29.154Z,75.19
2023-10-30T08:13:31.433Z,75.10
2023-10-30T08:16:36.100Z,74.43
2023-10-30T08:19:38.412Z,73.64
2023-10-30T08:22:40.776Z,73.72
2023-10-30T08:25:43.075Z,72.23
2023-10-30T08:28:47.145Z,72.50
2023-10-30T08:31:49.453Z,71.44
2023-10-30T08:34:51.809Z,71.12
2023-10-30T08:37:55.307Z,70.75
2023-10-30T08:40:57.596Z,71.10
2023-10-30T08:43:59.885Z,70.45
2023-10-30T08:47:02.249Z,70.33
2023-10-30T08:50:04.812Z,70.46
2023-10-30T08:53:07.059Z,69.59
2023-10-30T08:56:09.317Z,68.91
2023-10-30T08:59:13.739Z,67.35
2023-10-30T09:02:15.996Z,65.55
2023-10-30T09:05:19.386Z,64.84
2023-10-30T09:08:22.470Z,64.73
2023-10-30T09:11:26.150Z,64.68
2023-10-30T09:14:29.046Z,65.28
2023-10-30T09:17:31.399Z,63.28
2023-10-30T09:20:33.616Z,64.15
2023-10-30T09:23:36.704Z,63.78
2023-10-30T09:26:38.955Z,63.69
2023-10-30T09:29:41.400Z,64.47
2023-10-30T09:32:43.668Z,64.18
2023-10-30T09:35:46.016Z,64.55
2023-10-30T09:38:48.293Z,63.92
2023-10-30T09:41:51.064Z,64.99
2023-10-30T09:44:53.454Z,64.88
2023-10-30T09:47:57.242Z,65.44
2023-10-30T09:51:00.840Z,64.65
2023-10-30T09:54:03.872Z,65.01
2023-10-30T09:57:07.111Z,65.73
2023-10-30T10:00:10.248Z,65.20
2023-10-30T10:03:12.641Z,64.95
2023-10-30T10:06:15.142Z,65.21
2023-10-30T10:09:17.429Z,64.24
2023-10-30T10:12:22.910Z,63.62
2023-10-30T10:15:25.293Z,63.37
2023-10-30T10:18:37.429Z,62.78
2023-10-30T10:21:51.155Z,62.16
2023-10-30T10:24:54.227Z,62.26
2023-10-30T10:27:56.625Z,62.20
2023-10-30T10:30:59.815Z,61.61
2023-10-30T10:34:02.218Z,61.89
2023-10-30T10:37:04.576Z,62.35
2023-10-30T10:40:07.591Z,62.64
2023-10-30T10:43:10.595Z,63.07
2023-10-30T10:46:12.937Z,62.48
2023-10-30T10:49:16.271Z,62.64
2023-10-30T10:52:23.248Z,62.39
2023-10-30T10:55:30.566Z,62.78
2023-10-30T10:58:46.858Z,63.98
2023-10-30T11:01:55.881Z,63.29
2023-10-30T11:04:59.571Z,62.77
2023-10-30T11:08:20.137Z,61.83
2023-10-30T11:11:33.797Z,62.30
2023-10-30T11:15:13.906Z,62.47
2023-10-30T11:18:16.865Z,62.29
2023-10-30T11:21:23.568Z,60.84
2023-10-30T11:24:42.607Z,58.70
2023-10-30T11:27:45.021Z,57.53
2023-10-30T11:30:50.351Z,57.66
2023-10-30T11:34:15.650Z,56.50
2023-10-30T11:37:22.505Z,55.65
2023-10-30T11:40:25.558Z,55.72
2023-10-30T11:43:34.254Z,55.92
2023-10-30T11:46:44.491Z,56.66
2023-10-30T11:49:47.257Z,54.98
2023-10-30T11:52:52.043Z,55.86
2023-10-30T11:55:54.928Z,57.61
2023-10-30T11:58:58.148Z,58.27
2023-10-30T12:02:02.339Z,59.43
2023-10-30T12:05:08.787Z,60.06
2023-10-30T12:08:12.083Z,60.56
2023-10-30T12:11:14.577Z,61.59
2023-10-30T12:14:19.515Z,62.01
2023-10-30T12:17:22.497Z,61.99
2023-10-30T12:20:25.062Z,62.74
2023-10-30T12:23:27.378Z,62.84
2023-10-30T12:26:29.739Z,63.03
2023-10-30T12:29:32.063Z,63.68
2023-10-30T12:32:34.346Z,64.54
2023-10-30T12:35:40.400Z,65.16
2023-10-30T12:38:42.670Z,65.33
2023-10-30T12:41:47.991Z,64.79
2023-10-30T12:44:52.343Z,64.08
2023-10-30T12:47:55.145Z,64.24
2023-10-30T12:50:57.503Z,63.77
2023-10-30T12:53:59.782Z,63.44
2023-10-30T12:57:02.122Z,61.50
2023-10-30T13:00:06.389Z,59.08
2023-10-30T13:03:08.758Z,57.16
2023-10-30T13:06:11.071Z,57.76
2023-10-30T13:09:13.408Z,57.80
2023-10-30T13:12:15.748Z,55.51
2023-10-30T13:15:17.965Z,55.46
2023-10-30T13:18:20.301Z,54.96
2023-10-30T13:21:22.613Z,53.22
2023-10-30T13:24:26.024Z,53.77
2023-10-30T13:27:28.726Z,52.78
2023-10-30T13:30:31.315Z,52.33
2023-10-30T13:33:33.655Z,49.78
2023-10-30T13:36:36.042Z,50.43
2023-10-30T13:39:39.165Z,53.36
2023-10-30T13:42:42.392Z,54.86
2023-10-30T13:45:44.708Z,55.05
2023-10-30T13:48:47.006Z,54.69
2023-10-30T13:51:49.418Z,54.72
2023-10-30T13:54:53.671Z,53.35
2023-10-30T13:57:56.002Z,52.24
2023-10-30T14:00:58.373Z,52.20
2023-10-30T14:04:08.188Z,53.53
2023-10-30T14:07:11.385Z,54.49
2023-10-30T14:10:13.718Z,54.44
2023-10-30T14:13:17.141Z,55.16
2023-10-30T14:16:20.473Z,57.81
2023-10-30T14:19:22.883Z,59.89
2023-10-30T14:22:25.202Z,62.75
2023-10-30T14:25:27.500Z,64.16
2023-10-30T14:28:29.730Z,65.26
2023-10-30T14:31:32.797Z,66.22
2023-10-30T14:34:36.804Z,67.98
2023-10-30T14:37:39.154Z,67.33
2023-10-30T14:40:41.387Z,64.12
2023-10-30T14:43:44.135Z,66.77
2023-10-30T14:46:46.815Z,64.39
2023-10-30T14:49:49.454Z,64.40
2023-10-30T14:52:52.331Z,65.24
2023-10-30T14:55:54.790Z,66.74
2023-10-30T14:58:57.078Z,69.70
2023-10-30T15:01:59.408Z,72.37
2023-10-30T15:05:01.798Z,74.09
2023-10-30T15:08:04.314Z,74.92
2023-10-30T15:11:08.194Z,76.76
2023-10-30T15:14:10.516Z,76.40
2023-10-30T15:17:12.986Z,78.24
2023-10-30T15:20:15.603Z,77.56
2023-10-30T15:23:17.893Z,78.24
2023-10-30T15:26:20.227Z,78.93
2023-10-30T15:29:22.563Z,80.56
2023-10-30T15:32:24.989Z,81.26
2023-10-30T15:35:27.498Z,81.93
2023-10-30T15:38:29.809Z,81.66
2023-10-30T15:41:33.699Z,80.11
2023-10-30T15:44:36.084Z,79.34
2023-10-30T15:47:38.810Z,79.66
2023-10-30T15:50:41.624Z,79.85
2023-10-30T15:59:58.324Z,78.75
2023-10-30T16:06:08.320Z,79.32
2023-10-30T16:09:11.854Z,80.16
2023-10-30T16:12:14.521Z,79.97
2023-10-30T16:15:17.788Z,79.18
2023-10-30T16:18:22.367Z,78.95
2023-10-30T16:21:26.920Z,80.11
2023-10-30T16:24:29.871Z,79.52
2023-10-30T16:27:32.315Z,80.09
2023-10-30T16:30:34.636Z,80.86
2023-10-30T16:33:37.003Z,81.26
2023-10-30T16:36:39.246Z,79.51
2023-10-30T16:39:41.637Z,80.13
2023-10-30T16:42:43.930Z,81.32
2023-10-30T16:45:46.230Z,82.20
2023-10-30T16:48:48.459Z,81.88
2023-10-30T16:51:50.761Z,82.20
2023-10-30T16:54:53.001Z,81.49
2023-10-30T16:57:55.304Z,80.97
2023-10-30T17:00:57.581Z,80.68
2023-10-30T17:03:59.936Z,80.75
2023-10-30T17:07:02.584Z,81.32
2023-10-30T17:10:05.278Z,81.25
2023-10-30T17:13:09.601Z,81.44
2023-10-30T17:16:12.049Z,81.61
2023-10-30T17:19:16.628Z,81.64
2023-10-30T17:22:19.268Z,81.89
2023-10-30T17:25:22.322Z,81.99
2023-10-30T17:28:25.345Z,81.62
2023-10-30T17:31:27.720Z,82.41
2023-10-30T17:34:30.112Z,82.03
2023-10-30T17:37:32.467Z,81.23
2023-10-30T17:40:34.772Z,80.75
2023-10-30T17:43:37.146Z,81.01
2023-10-30T17:46:41.265Z,82.02
2023-10-30T17:49:43.728Z,83.26
2023-10-30T17:52:46.079Z,83.40
2023-10-30T17:55:49.968Z,83.06
2023-10-30T17:58:52.337Z,81.21
2023-10-30T18:01:56.044Z,81.38
2023-10-30T18:04:59.660Z,80.78
2023-10-30T18:08:02.651Z,81.50
2023-10-30T18:11:05.682Z,80.63
2023-10-30T18:14:07.933Z,81.67
2023-10-30T18:17:10.184Z,81.98
2023-10-30T18:20:13.587Z,82.76
2023-10-30T18:23:19.296Z,83.81
2023-10-30T18:26:24.215Z,84.50
2023-10-30T18:29:30.485Z,86.35
2023-10-30T18:32:32.961Z,88.20
2023-10-30T18:35:36.095Z,89.31
2023-10-30T18:38:38.422Z,88.80
2023-10-30T18:41:40.791Z,88.49
2023-10-30T18:44:43.011Z,88.32
2023-10-30T18:47:45.334Z,88.74
2023-10-30T18:50:50.491Z,89.87
2023-10-30T18:53:52.808Z,90.30
2023-10-30T18:56:55.101Z,91.24
2023-10-30T18:59:57.421Z,92.17
2023-10-30T19:02:59.768Z,91.28
2023-10-30T19:06:06.603Z,91.12
2023-10-30T19:09:10.777Z,90.98
2023-10-30T19:12:14.694Z,91.36
2023-10-30T19:15:18.483Z,91.58
2023-10-30T19:18:20.812Z,91.73
2023-10-30T19:21:23.098Z,91.68
2023-10-30T19:24:26.536Z,91.54
2023-10-30T19:27:28.779Z,91.78
2023-10-30T19:30:31.140Z,92.44
2023-10-30T19:33:33.873Z,92.71
2023-10-30T19:36:36.145Z,92.51
2023-10-30T19:39:38.508Z,92.88
2023-10-30T19:42:40.790Z,93.78
2023-10-30T19:45:43.054Z,95.21
2023-10-30T19:48:45.804Z,94.88
2023-10-30T19:51:55.603Z,94.04
2023-10-30T19:55:01.275Z,87.85
2023-10-30T19:58:03.654Z,84.23
2023-10-30T20:01:05.961Z,83.17
2023-10-30T20:04:09.611Z,82.30
2023-10-30T20:07:11.965Z,81.48
2023-10-30T20:10:28.357Z,80.23
2023-10-30T20:13:37.155Z,79.53
2023-10-30T20:16:39.839Z,79.36
2023-10-30T20:19:42.257Z,80.74
2023-10-30T20:22:44.713Z,80.37
2023-10-30T20:25:47.170Z,82.22
2023-10-30T20:28:49.421Z,83.33
2023-10-30T20:31:51.924Z,82.61
2023-10-30T20:34:54.264Z,82.53
2023-10-30T20:37:56.652Z,81.97
2023-10-30T20:40:58.950Z,79.71
2023-10-30T20:44:01.306Z,78.90
2023-10-30T20:47:03.726Z,78.91
2023-10-30T20:50:06.912Z,79.00
2023-10-30T20:53:09.520Z,78.44
2023-10-30T20:56:11.808Z,78.51
2023-10-30T20:59:14.013Z,78.18
2023-10-30T21:02:16.477Z,79.13
2023-10-30T21:05:21.130Z,78.90
2023-10-30T21:08:23.750Z,80.13
2023-10-30T21:11:26.133Z,79.87
2023-10-30T21:14:28.479Z,80.02
2023-10-30T21:17:30.860Z,79.30
2023-10-30T21:20:33.418Z,78.77
2023-10-30T21:23:35.690Z,78.56
2023-10-30T21:26:38.080Z,78.11
2023-10-30T21:29:40.348Z,78.24
2023-10-30T21:32:42.688Z,77.54
2023-10-30T21:35:45.003Z,77.26
2023-10-30T21:38:47.298Z,77.49
2023-10-30T21:41:49.749Z,77.52
2023-10-30T21:44:52.454Z,77.67
2023-10-30T21:47:54.766Z,77.70
2023-10-30T21:50:57.431Z,77.33
2023-10-30T21:54:00.712Z,77.32
2023-10-30T21:57:03.157Z,77.42
2023-10-30T22:00:08.989Z,77.42
2023-10-30T22:03:13.827Z,77.32
2023-10-30T22:06:16.154Z,77.21
2023-10-30T22:09:19.675Z,77.47
2023-10-30T22:12:21.914Z,77.54
2023-10-30T22:15:24.299Z,78.08
2023-10-30T22:18:26.498Z,78.25
2023-10-30T22:21:28.775Z,78.54
2023-10-30T22:24:31.042Z,79.06
2023-10-30T22:27:33.393Z,78.79
2023-10-30T22:30:35.687Z,78.78
2023-10-30T22:33:38.139Z,79.13
2023-10-30T22:36:40.355Z,78.43
2023-10-30T22:39:42.665Z,78.27
2023-10-30T22:42:44.926Z,77.66
2023-10-30T22:45:47.302Z,78.28
2023-10-30T22:48:49.516Z,77.98
2023-10-30T22:51:51.860Z,78.08
2023-10-30T22:54:54.102Z,78.32
2023-10-30T22:57:59.472Z,78.57
2023-10-30T23:01:02.403Z,78.90
2023-10-30T23:04:05.482Z,79.20
2023-10-30T23:07:07.770Z,78.84
2023-10-30T23:10:10.240Z,78.94
2023-10-30T23:13:12.670Z,78.84
2023-10-30T23:16:14.996Z,78.54
2023-10-30T23:19:17.241Z,78.43
2023-10-30T23:22:19.680Z,78.23
2023-10-30T23:25:22.062Z,78.37
2023-10-30T23:28:24.440Z,77.63
2023-10-30T23:31:26.788Z,77.82
2023-10-30T23:34:29.081Z,77.42
2023-10-30T23:37:31.449Z,78.03
2023-10-30T23:40:33.784Z,77.31
2023-10-30T23:43:36.075Z,77.26
2023-10-30T23:46:41.474Z,77.10
2023-10-30T23:49:44.435Z,77.13
2023-10-30T23:52:46.752Z,76.98
2023-10-30T23:55:49.119Z,77.12
2023-10-30T23:58:51.451Z,77.03
